Time;durP1;ratioP1;P1;durP2;ratioP2;P2;SDS_P1;SDS_P2;PMS_P1;PMS_P2;Temp;Humidity;BMP_temperature;BMP_pressure;BME280_temperature;BME280_humidity;BME280_pressure;Samples;Min_cycle;Max_cycle;Signal;HPM_P1;HPM_P2
2022/03/30 00:00:45;;;;;;;36.03;18.23;;;7.90;99.90;;;;;;4997534;28;20061;-90
2022/03/30 00:03:11;;;;;;;32.22;17.45;;;7.90;99.90;;;;;;4997274;28;20135;-90
2022/03/30 00:05:36;;;;;;;39.85;18.02;;;7.90;99.90;;;;;;5030726;28;20033;-90
2022/03/30 00:08:02;;;;;;;31.95;15.48;;;7.90;99.90;;;;;;4992609;28;20033;-90
2022/03/30 00:10:28;;;;;;;34.20;18.45;;;7.90;99.90;;;;;;4995621;28;20034;-89
2022/03/30 00:12:55;;;;;;;34.17;18.30;;;7.80;99.90;;;;;;5000960;28;20040;-90
2022/03/30 00:15:21;;;;;;;33.78;17.02;;;7.80;99.90;;;;;;5032464;28;20413;-90
2022/03/30 00:17:46;;;;;;;35.58;18.15;;;7.70;99.90;;;;;;4995553;28;20120;-90
2022/03/30 00:20:12;;;;;;;39.58;18.40;;;7.80;99.90;;;;;;4992770;28;20033;-90
2022/03/30 00:22:41;;;;;;;43.22;18.67;;;7.80;99.90;;;;;;4990330;28;20085;-89
2022/03/30 00:25:08;;;;;;;37.50;19.20;;;7.80;99.90;;;;;;5007558;28;20080;-90
2022/03/30 00:27:34;;;;;;;41.60;19.85;;;7.70;99.90;;;;;;5031090;28;20036;-90
2022/03/30 00:30:00;;;;;;;37.00;19.70;;;7.70;99.90;;;;;;4995048;28;20074;-90
2022/03/30 00:32:26;;;;;;;38.28;18.50;;;7.70;99.90;;;;;;5020795;28;20514;-90
2022/03/30 00:34:51;;;;;;;37.97;18.17;;;7.70;99.90;;;;;;5010406;28;20601;-89
2022/03/30 00:37:23;;;;;;;37.65;19.73;;;7.70;99.90;;;;;;5012620;28;20040;-89
2022/03/30 00:39:49;;;;;;;38.00;18.92;;;7.70;99.90;;;;;;5021998;28;20037;-90
2022/03/30 00:42:19;;;;;;;40.65;20.10;;;7.70;99.90;;;;;;4988299;28;20037;-89
2022/03/30 00:44:48;;;;;;;38.15;20.67;;;7.70;99.90;;;;;;4994543;28;20041;-90
2022/03/30 00:47:15;;;;;;;31.38;17.13;;;7.60;99.90;;;;;;5011663;28;20120;-89
2022/03/30 00:49:41;;;;;;;37.70;18.77;;;7.60;99.90;;;;;;5011710;28;20485;-90
2022/03/30 00:52:07;;;;;;;42.90;18.45;;;7.60;99.90;;;;;;5007782;28;20117;-90
2022/03/30 00:54:33;;;;;;;41.17;19.02;;;7.60;99.90;;;;;;5007869;28;20165;-89
2022/03/30 00:56:58;;;;;;;37.38;17.77;;;7.60;99.90;;;;;;5005877;28;20527;-89
2022/03/30 00:59:24;;;;;;;39.55;19.67;;;7.60;99.90;;;;;;4997502;28;20096;-90
2022/03/30 01:01:50;;;;;;;41.53;19.65;;;7.60;99.90;;;;;;4987770;28;20091;-90
2022/03/30 01:04:16;;;;;;;34.72;18.38;;;7.50;99.90;;;;;;5003259;28;20022;-89
2022/03/30 01:06:41;;;;;;;43.13;18.80;;;7.40;99.90;;;;;;5024194;28;20045;-89
2022/03/30 01:09:07;;;;;;;37.95;19.25;;;7.50;99.90;;;;;;4992862;28;20041;-89
2022/03/30 01:11:33;;;;;;;36.92;18.27;;;7.40;99.90;;;;;;5024251;28;20156;-89
2022/03/30 01:13:59;;;;;;;43.83;19.27;;;7.40;99.90;;;;;;5005831;28;20025;-90
2022/03/30 01:16:29;;;;;;;36.45;20.63;;;7.30;99.90;;;;;;5000608;28;20025;-90
2022/03/30 01:19:21;;;;;;;38.42;18.70;;;7.30;99.90;;;;;;4983404;28;20041;-90
2022/03/30 01:21:46;;;;;;;42.13;19.80;;;7.20;99.90;;;;;;5027300;28;20041;-89
2022/03/30 01:24:13;;;;;;;39.30;19.85;;;7.10;99.90;;;;;;5037676;28;20038;-89
2022/03/30 01:26:40;;;;;;;36.08;19.00;;;7.10;99.90;;;;;;5032218;28;20504;-89
2022/03/30 01:32:24;;;;;;;48.38;19.75;;;7.00;99.90;;;;;;5009979;28;20504;-89
2022/03/30 01:34:39;;;;;;;36.63;18.08;;;6.90;99.90;;;;;;5025640;28;20033;-89
2022/03/30 01:37:05;;;;;;;53.63;20.35;;;6.90;99.90;;;;;;4993652;28;20034;-89
2022/03/30 01:39:31;;;;;;;38.47;18.23;;;6.80;99.90;;;;;;5026168;28;20355;-90
2022/03/30 01:41:56;;;;;;;43.30;18.85;;;6.80;99.90;;;;;;4991847;28;20038;-90
2022/03/30 01:44:22;;;;;;;34.72;17.90;;;6.80;99.90;;;;;;4996023;28;20021;-89
2022/03/30 01:46:48;;;;;;;40.28;18.77;;;6.70;99.90;;;;;;4994359;28;20127;-90
2022/03/30 01:49:13;;;;;;;44.35;18.67;;;6.80;99.90;;;;;;4990259;28;20481;-89
2022/03/30 01:51:39;;;;;;;38.15;20.63;;;6.70;99.90;;;;;;4993365;28;20030;-89
2022/03/30 01:54:04;;;;;;;40.85;19.27;;;6.50;99.90;;;;;;4996207;28;20021;-89
2022/03/30 01:56:30;;;;;;;36.38;20.10;;;6.50;99.90;;;;;;5008916;28;20493;-89
2022/03/30 01:58:56;;;;;;;41.80;19.85;;;6.50;99.90;;;;;;5003586;28;20037;-89
2022/03/30 02:01:22;;;;;;;51.83;21.45;;;6.60;99.90;;;;;;4988858;28;20128;-90
2022/03/30 02:03:47;;;;;;;39.67;21.33;;;6.60;99.90;;;;;;4985996;28;20053;-90
2022/03/30 02:06:14;;;;;;;41.10;19.98;;;6.50;99.90;;;;;;5009586;28;20481;-89
2022/03/30 02:08:40;;;;;;;36.70;18.73;;;6.40;99.90;;;;;;5015613;28;20053;-89
2022/03/30 02:11:09;;;;;;;44.15;21.38;;;6.50;99.90;;;;;;5018433;28;20119;-90
2022/03/30 02:13:34;;;;;;;41.65;20.50;;;6.40;99.90;;;;;;5021607;28;20796;-89
2022/03/30 02:16:00;;;;;;;50.70;20.95;;;6.30;99.90;;;;;;4992954;28;20045;-90
2022/03/30 02:18:26;;;;;;;40.60;20.23;;;6.40;99.90;;;;;;5030508;28;20025;-90
2022/03/30 02:20:52;;;;;;;40.67;19.02;;;6.40;99.90;;;;;;4983522;28;20453;-89
2022/03/30 02:23:18;;;;;;;45.83;20.35;;;6.40;99.90;;;;;;5007532;28;20116;-91
2022/03/30 02:25:44;;;;;;;45.78;21.85;;;6.30;99.90;;;;;;5018983;28;20129;-89
2022/03/30 02:28:10;;;;;;;39.80;19.02;;;6.20;99.90;;;;;;4993046;28;20543;-90
2022/03/30 02:30:36;;;;;;;46.22;20.83;;;6.20;99.90;;;;;;5028094;28;20053;-89
2022/03/30 02:33:02;;;;;;;40.30;20.50;;;6.10;99.90;;;;;;4991042;28;20084;-90
2022/03/30 02:35:28;;;;;;;41.83;19.50;;;6.20;99.90;;;;;;5016242;28;20029;-90
2022/03/30 02:37:55;;;;;;;42.58;20.83;;;6.20;99.90;;;;;;4990496;28;20042;-89
2022/03/30 02:40:21;;;;;;;43.38;19.50;;;6.20;99.90;;;;;;5027946;28;20026;-89
2022/03/30 02:42:47;;;;;;;38.60;19.15;;;6.10;99.90;;;;;;4994333;28;20037;-89
2022/03/30 02:45:12;;;;;;;44.30;20.42;;;6.10;99.90;;;;;;4992971;28;20045;-90
2022/03/30 02:48:28;;;;;;;39.38;19.90;;;6.10;99.90;;;;;;5029551;28;20044;-89
2022/03/30 02:50:24;;;;;;;42.47;20.25;;;6.00;99.90;;;;;;5012096;28;20483;-90
2022/03/30 02:52:50;;;;;;;45.20;20.45;;;6.00;99.90;;;;;;4990771;28;20033;-89
2022/03/30 02:55:16;;;;;;;47.25;20.55;;;5.90;99.90;;;;;;4993881;28;20033;-88
2022/03/30 02:57:44;;;;;;;52.05;20.08;;;5.90;99.90;;;;;;5013337;28;20049;-89
2022/03/30 03:00:10;;;;;;;41.97;20.83;;;5.80;99.90;;;;;;4995471;28;20392;-89
2022/03/30 03:02:35;;;;;;;35.92;19.63;;;5.80;99.90;;;;;;5004355;28;20865;-90
2022/03/30 03:05:03;;;;;;;36.15;18.48;;;5.70;99.90;;;;;;5009776;28;20033;-89
2022/03/30 03:07:28;;;;;;;44.70;21.70;;;5.60;99.90;;;;;;4981734;28;20036;-89
2022/03/30 03:09:54;;;;;;;43.42;20.38;;;5.60;99.90;;;;;;4989564;28;20033;-89
2022/03/30 03:12:21;;;;;;;43.67;20.08;;;5.50;99.90;;;;;;4995055;28;20081;-89
2022/03/30 03:14:46;;;;;;;41.92;18.88;;;5.50;99.90;;;;;;5028947;28;20485;-90
2022/03/30 03:17:12;;;;;;;40.40;21.33;;;5.50;99.90;;;;;;4996340;28;20032;-88
2022/03/30 03:19:37;;;;;;;56.28;22.52;;;5.30;99.90;;;;;;5009535;28;20037;-89
2022/03/30 03:22:04;;;;;;;46.08;20.92;;;5.30;99.90;;;;;;4993859;28;20112;-89
2022/03/30 03:24:32;;;;;;;41.83;20.15;;;5.30;99.90;;;;;;5008880;28;20036;-90
2022/03/30 03:26:57;;;;;;;42.65;20.50;;;5.20;99.90;;;;;;5026252;28;20037;-89
2022/03/30 03:29:23;;;;;;;39.95;18.23;;;5.10;99.90;;;;;;4999704;28;20119;-90
2022/03/30 03:31:49;;;;;;;48.70;19.90;;;5.10;99.90;;;;;;4997945;28;20030;-90
2022/03/30 03:34:14;;;;;;;43.85;20.17;;;5.00;99.90;;;;;;4982378;28;20033;-89
2022/03/30 03:36:40;;;;;;;43.13;19.40;;;5.00;99.90;;;;;;5022094;28;20128;-90
2022/03/30 03:39:05;;;;;;;41.03;19.08;;;4.90;99.90;;;;;;4992808;28;20140;-89
2022/03/30 03:41:31;;;;;;;38.92;21.02;;;4.90;99.90;;;;;;5029375;28;20037;-89
2022/03/30 03:43:57;;;;;;;37.38;17.85;;;4.70;99.90;;;;;;4996747;28;20053;-89
2022/03/30 03:46:22;;;;;;;41.95;20.25;;;4.80;99.90;;;;;;5010049;28;20059;-89
2022/03/30 03:48:48;;;;;;;45.20;21.67;;;4.70;99.90;;;;;;5001413;28;20037;-89
2022/03/30 03:51:13;;;;;;;41.08;18.25;;;4.60;99.90;;;;;;4984142;28;20034;-88
2022/03/30 03:53:40;;;;;;;40.75;20.58;;;4.60;99.90;;;;;;5025716;28;20133;-89
2022/03/30 03:56:05;;;;;;;38.63;20.17;;;4.50;99.90;;;;;;5011905;28;20041;-89
2022/03/30 03:58:31;;;;;;;43.28;20.08;;;4.40;99.90;;;;;;4992710;28;20512;-89
2022/03/30 04:00:57;;;;;;;43.35;20.98;;;4.40;99.90;;;;;;5012487;28;20473;-89
2022/03/30 04:03:23;;;;;;;43.20;20.35;;;4.40;99.90;;;;;;4996131;28;20026;-90
2022/03/30 04:05:48;;;;;;;43.25;20.88;;;4.40;99.90;;;;;;5028824;28;20564;-89
2022/03/30 04:08:16;;;;;;;44.80;19.55;;;4.30;99.90;;;;;;4999453;28;20030;-89
2022/03/30 04:10:42;;;;;;;42.03;19.38;;;4.30;99.90;;;;;;5021350;28;20100;-89
2022/03/30 04:13:09;;;;;;;36.95;18.05;;;4.30;99.90;;;;;;4996693;28;20406;-90
2022/03/30 04:15:35;;;;;;;42.22;20.02;;;4.40;99.90;;;;;;5023813;28;20058;-88
2022/03/30 04:18:01;;;;;;;39.75;18.88;;;4.30;99.90;;;;;;5014164;28;20497;-92
2022/03/30 04:20:27;;;;;;;52.78;20.83;;;4.40;99.90;;;;;;5014045;28;20033;-91
2022/03/30 04:22:54;;;;;;;43.65;20.35;;;4.30;99.90;;;;;;4996450;28;20091;-90
2022/03/30 04:25:19;;;;;;;43.28;18.15;;;4.30;99.90;;;;;;5013951;28;20036;-89
2022/03/30 04:27:48;;;;;;;39.42;18.80;;;4.20;99.90;;;;;;5031475;28;20034;-90
2022/03/30 04:30:15;;;;;;;46.22;19.58;;;4.20;99.90;;;;;;4992947;28;20053;-89
2022/03/30 04:32:41;;;;;;;48.97;20.45;;;4.20;99.90;;;;;;5010468;28;20065;-90
2022/03/30 04:35:10;;;;;;;45.15;19.75;;;4.10;99.90;;;;;;4989714;28;20493;-91
2022/03/30 04:37:37;;;;;;;44.08;20.58;;;4.20;99.90;;;;;;5020284;28;20112;-90
2022/03/30 04:40:03;;;;;;;52.20;22.20;;;4.10;99.90;;;;;;4998506;28;20662;-90
2022/03/30 04:42:29;;;;;;;43.15;19.58;;;4.10;99.90;;;;;;5009951;28;20029;-90
2022/03/30 04:44:55;;;;;;;44.22;19.98;;;4.30;99.90;;;;;;5008010;28;20040;-90
2022/03/30 04:47:20;;;;;;;48.03;20.77;;;4.10;99.90;;;;;;5048948;28;20489;-90
2022/03/30 04:49:46;;;;;;;42.38;19.88;;;4.10;99.90;;;;;;5023089;28;20064;-90
2022/03/30 04:52:12;;;;;;;42.03;20.30;;;4.30;99.90;;;;;;5038662;28;20416;-90
2022/03/30 04:54:37;;;;;;;49.95;21.23;;;4.00;99.90;;;;;;5029835;28;20490;-91
2022/03/30 04:57:03;;;;;;;48.80;21.17;;;4.10;99.90;;;;;;4993574;28;20192;-89
2022/03/30 04:59:29;;;;;;;46.55;21.90;;;3.90;99.90;;;;;;4997127;28;20025;-90
2022/03/30 05:01:55;;;;;;;40.78;20.67;;;3.70;99.90;;;;;;5002189;28;20034;-89
2022/03/30 05:04:20;;;;;;;45.15;20.45;;;3.60;99.90;;;;;;4987443;28;20097;-90
2022/03/30 05:06:47;;;;;;;42.90;18.80;;;3.60;99.90;;;;;;4994320;28;20036;-90
2022/03/30 05:09:13;;;;;;;49.38;21.35;;;3.70;99.90;;;;;;4988775;28;20076;-90
2022/03/30 05:11:39;;;;;;;43.30;22.02;;;3.60;99.90;;;;;;5023258;28;20026;-90
2022/03/30 05:14:05;;;;;;;49.33;21.15;;;3.50;99.90;;;;;;4996136;28;20037;-91
2022/03/30 05:16:31;;;;;;;46.20;22.10;;;3.50;99.90;;;;;;5030734;28;20040;-90
2022/03/30 05:18:56;;;;;;;47.95;21.30;;;3.30;99.90;;;;;;4990052;28;20045;-90
2022/03/30 05:21:22;;;;;;;48.88;22.20;;;3.40;99.90;;;;;;4996516;28;20038;-89
2022/03/30 05:23:48;;;;;;;47.13;21.15;;;3.40;99.90;;;;;;4986947;28;20070;-91
2022/03/30 05:26:14;;;;;;;43.03;19.35;;;3.40;99.90;;;;;;4994418;28;20060;-89
2022/03/30 05:28:40;;;;;;;43.28;20.65;;;3.30;99.90;;;;;;5021195;28;20040;-90
2022/03/30 05:31:06;;;;;;;54.10;22.13;;;3.30;99.90;;;;;;4986376;28;20042;-91
2022/03/30 05:33:32;;;;;;;52.05;20.85;;;3.30;99.90;;;;;;5027394;28;20037;-90
2022/03/30 05:35:57;;;;;;;53.22;24.52;;;3.30;99.90;;;;;;4993363;28;20049;-90
2022/03/30 05:38:24;;;;;;;48.88;20.92;;;3.20;99.90;;;;;;4995532;28;20026;-89
2022/03/30 05:40:50;;;;;;;46.92;22.42;;;3.20;99.90;;;;;;4997424;28;20130;-90
2022/03/30 05:43:17;;;;;;;50.50;23.27;;;3.20;99.90;;;;;;5012313;28;20537;-90
2022/03/30 05:45:43;;;;;;;50.85;22.80;;;3.30;99.90;;;;;;4990528;28;20041;-90
2022/03/30 05:48:09;;;;;;;52.28;22.58;;;3.30;99.90;;;;;;5006223;28;20507;-90
2022/03/30 05:50:35;;;;;;;48.20;21.08;;;3.30;99.90;;;;;;5028711;28;20033;-90
2022/03/30 05:53:03;;;;;;;50.83;23.85;;;3.30;99.90;;;;;;4995723;28;20049;-90
2022/03/30 05:55:31;;;;;;;46.83;21.27;;;3.40;99.90;;;;;;5007890;28;20370;-90
2022/03/30 05:57:57;;;;;;;57.92;24.90;;;3.30;99.90;;;;;;4987205;28;20038;-90
2022/03/30 06:00:22;;;;;;;50.00;21.48;;;3.30;99.90;;;;;;4990292;28;20382;-89
2022/03/30 06:02:48;;;;;;;47.10;22.15;;;3.10;99.90;;;;;;4998667;28;20420;-90
2022/03/30 06:05:14;;;;;;;49.65;21.20;;;3.10;99.90;;;;;;4993498;28;20034;-89
2022/03/30 06:07:40;;;;;;;49.50;23.42;;;3.10;99.90;;;;;;5016851;28;20034;-90
2022/03/30 06:10:06;;;;;;;44.08;22.40;;;3.20;99.90;;;;;;5007681;28;20370;-90
2022/03/30 06:12:32;;;;;;;50.72;21.80;;;3.20;99.90;;;;;;5007237;28;20041;-90
2022/03/30 06:14:58;;;;;;;53.55;25.17;;;3.30;99.90;;;;;;5031234;28;20042;-90
2022/03/30 06:17:23;;;;;;;48.63;23.90;;;3.20;99.90;;;;;;4996216;28;20030;-90
2022/03/30 06:19:54;;;;;;;48.15;22.42;;;3.30;99.90;;;;;;4987404;28;20065;-91
2022/03/30 06:22:20;;;;;;;47.65;21.92;;;3.20;99.90;;;;;;5028026;28;20022;-90
2022/03/30 06:24:45;;;;;;;41.75;20.98;;;3.30;99.90;;;;;;4996122;28;20090;-90
2022/03/30 06:27:11;;;;;;;60.35;22.95;;;3.50;99.90;;;;;;4987267;28;20042;-90
2022/03/30 06:29:38;;;;;;;51.33;22.27;;;3.50;99.90;;;;;;5025002;28;20062;-91
2022/03/30 06:32:04;;;;;;;57.35;22.17;;;3.40;99.90;;;;;;4984482;28;20053;-91
2022/03/30 06:34:30;;;;;;;56.35;23.02;;;3.50;99.90;;;;;;5003817;28;20064;-90
2022/03/30 06:36:56;;;;;;;56.78;22.30;;;3.40;99.90;;;;;;5009713;28;20085;-91
2022/03/30 06:39:22;;;;;;;48.22;21.90;;;3.50;99.90;;;;;;5007683;28;20036;-91
2022/03/30 06:41:48;;;;;;;46.38;21.50;;;3.50;99.90;;;;;;4986784;28;20064;-90
2022/03/30 06:44:15;;;;;;;50.30;21.88;;;3.50;99.90;;;;;;5001497;28;20029;-90
2022/03/30 06:46:41;;;;;;;45.70;21.42;;;3.40;99.90;;;;;;4995276;28;20112;-91
2022/03/30 06:49:09;;;;;;;44.13;21.58;;;3.50;99.90;;;;;;4982565;28;20129;-90
2022/03/30 06:51:35;;;;;;;37.47;20.00;;;3.40;99.90;;;;;;4987738;28;20041;-91
2022/03/30 06:54:01;;;;;;;46.75;21.60;;;3.50;99.90;;;;;;5003928;28;20400;-90
2022/03/30 06:56:27;;;;;;;40.60;19.75;;;3.60;99.90;;;;;;5005233;28;20112;-90
2022/03/30 06:58:53;;;;;;;51.25;20.65;;;3.50;99.90;;;;;;5033664;28;20030;-90
2022/03/30 07:01:18;;;;;;;49.55;22.60;;;3.50;99.90;;;;;;4989541;28;20495;-90
2022/03/30 07:03:44;;;;;;;49.33;21.13;;;3.70;99.90;;;;;;5009282;28;20034;-90
2022/03/30 07:06:11;;;;;;;50.70;21.58;;;3.70;99.90;;;;;;4997856;28;20033;-89
2022/03/30 07:11:22;;;;;;;44.80;20.80;;;4.00;99.90;;;;;;5008630;28;20033;-91
2022/03/30 07:13:49;;;;;;;40.75;19.33;;;4.10;99.90;;;;;;4997784;28;20038;-91
2022/03/30 07:16:15;;;;;;;51.13;20.75;;;4.30;99.90;;;;;;4983501;28;20486;-90
2022/03/30 07:18:40;;;;;;;45.72;20.73;;;4.30;99.90;;;;;;4998334;28;20030;-90
2022/03/30 07:21:09;;;;;;;44.33;21.73;;;4.30;99.90;;;;;;5010219;28;20997;-90
2022/03/30 07:23:34;;;;;;;43.33;18.38;;;4.40;99.90;;;;;;5008922;28;20036;-90
2022/03/30 07:26:00;;;;;;;46.90;20.55;;;4.50;99.90;;;;;;4998833;28;20030;-90
2022/03/30 07:28:27;;;;;;;45.38;20.83;;;4.60;99.90;;;;;;5038903;28;20030;-90
2022/03/30 07:30:55;;;;;;;37.30;17.88;;;4.70;99.90;;;;;;5017117;28;20053;-91
2022/03/30 07:33:23;;;;;;;45.65;20.65;;;4.90;99.90;;;;;;4995877;28;20034;-90
2022/03/30 07:35:49;;;;;;;43.55;21.50;;;5.00;99.90;;;;;;4995232;28;20222;-90
2022/03/30 07:38:17;;;;;;;43.28;21.02;;;5.10;99.90;;;;;;4987167;28;20036;-89
2022/03/30 07:40:45;;;;;;;54.83;23.42;;;5.10;99.90;;;;;;5021136;28;20034;-90
2022/03/30 07:43:12;;;;;;;48.05;20.35;;;5.40;99.90;;;;;;4990574;28;20041;-91
2022/03/30 07:45:39;;;;;;;43.75;20.13;;;5.70;99.90;;;;;;5020975;28;20029;-90
2022/03/30 07:48:05;;;;;;;43.38;21.13;;;5.90;99.90;;;;;;5034949;28;20033;-90
2022/03/30 07:50:31;;;;;;;39.38;20.25;;;5.90;99.90;;;;;;4989427;28;20384;-90
2022/03/30 07:52:57;;;;;;;45.95;21.95;;;5.90;99.90;;;;;;4997198;28;20029;-91
2022/03/30 07:55:27;;;;;;;45.78;20.42;;;6.00;99.90;;;;;;5042957;28;20033;-90
2022/03/30 07:57:53;;;;;;;42.63;20.45;;;6.40;99.90;;;;;;5000695;28;20505;-90
2022/03/30 08:00:21;;;;;;;39.40;21.20;;;6.40;99.90;;;;;;4988640;28;20033;-91
2022/03/30 08:02:46;;;;;;;40.05;18.33;;;6.60;99.90;;;;;;5012332;28;20120;-90
2022/03/30 08:05:13;;;;;;;41.10;19.42;;;6.50;99.90;;;;;;4994330;28;20085;-90
2022/03/30 08:07:45;;;;;;;40.65;18.65;;;6.80;99.90;;;;;;5028514;28;20047;-90
2022/03/30 08:10:11;;;;;;;46.97;21.42;;;7.00;99.90;;;;;;4994915;28;20032;-90
2022/03/30 08:12:40;;;;;;;41.45;18.38;;;7.20;99.90;;;;;;4995395;28;20033;-90
2022/03/30 08:15:06;;;;;;;48.25;20.67;;;6.90;99.90;;;;;;4993659;28;20034;-91
2022/03/30 08:17:32;;;;;;;40.58;20.17;;;7.00;99.90;;;;;;5028292;28;20068;-91
2022/03/30 08:19:59;;;;;;;38.92;19.70;;;7.10;99.90;;;;;;4994027;28;20054;-90
2022/03/30 08:22:30;;;;;;;47.17;20.60;;;7.20;99.90;;;;;;4994790;28;20480;-89
2022/03/30 08:24:58;;;;;;;42.00;19.05;;;7.10;99.90;;;;;;4993367;28;20049;-90
2022/03/30 08:27:25;;;;;;;46.30;20.15;;;7.20;99.90;;;;;;4982091;28;20042;-90
2022/03/30 08:29:51;;;;;;;37.15;17.58;;;7.30;99.90;;;;;;4997791;28;20503;-90
2022/03/30 08:32:18;;;;;;;44.72;21.20;;;7.60;99.90;;;;;;5025293;28;20161;-90
2022/03/30 08:34:43;;;;;;;40.15;19.20;;;7.40;99.90;;;;;;5005883;28;20038;-90
2022/03/30 08:37:16;;;;;;;38.28;17.70;;;7.50;99.90;;;;;;5014778;28;20475;-91
2022/03/30 08:39:42;;;;;;;37.13;18.00;;;7.50;99.90;;;;;;5027591;28;20623;-91
2022/03/30 08:42:08;;;;;;;34.70;16.17;;;7.40;99.90;;;;;;5009841;28;20044;-90
2022/03/30 08:44:34;;;;;;;33.35;16.77;;;7.50;99.90;;;;;;5028435;28;20036;-90
2022/03/30 08:47:00;;;;;;;35.67;16.55;;;7.80;99.90;;;;;;5005421;28;20030;-90
2022/03/30 08:49:27;;;;;;;38.05;16.48;;;7.80;99.90;;;;;;4994223;28;20088;-90
2022/03/30 08:51:54;;;;;;;31.08;15.02;;;7.80;99.90;;;;;;5018071;28;20043;-90
2022/03/30 08:54:20;;;;;;;31.90;15.98;;;8.00;99.90;;;;;;5036149;28;20504;-90
2022/03/30 08:56:46;;;;;;;31.52;14.70;;;8.10;99.90;;;;;;4994169;28;20061;-90
2022/03/30 08:59:16;;;;;;;56.40;18.67;;;8.00;99.90;;;;;;4995503;28;20026;-90
2022/03/30 09:01:43;;;;;;;37.17;15.10;;;8.10;99.90;;;;;;4991908;28;20125;-91
2022/03/30 09:04:11;;;;;;;27.73;14.43;;;8.20;99.90;;;;;;4991876;28;20037;-90
2022/03/30 09:06:41;;;;;;;28.67;14.63;;;8.20;99.90;;;;;;5027990;28;20033;-90
2022/03/30 09:09:07;;;;;;;27.08;14.38;;;8.30;99.90;;;;;;4993945;28;20034;-89
2022/03/30 09:11:40;;;;;;;27.52;13.98;;;8.40;99.90;;;;;;4991584;28;20034;-90
2022/03/30 09:14:07;;;;;;;28.88;14.70;;;8.40;99.90;;;;;;5020032;28;20506;-90
2022/03/30 09:16:47;;;;;;;30.23;14.10;;;8.50;99.90;;;;;;5024890;28;20045;-90
2022/03/30 09:19:14;;;;;;;30.23;15.25;;;8.60;99.90;;;;;;5006653;28;20083;-90
2022/03/30 09:21:58;;;;;;;29.38;14.15;;;8.70;99.90;;;;;;5030350;28;20039;-90
2022/03/30 09:24:31;;;;;;;32.10;13.02;;;8.70;99.90;;;;;;5009109;28;20079;-90
2022/03/30 09:26:58;;;;;;;20.17;11.90;;;8.80;99.90;;;;;;5011738;28;20052;-90
2022/03/30 09:29:26;;;;;;;26.13;13.00;;;9.40;99.90;;;;;;4989368;28;20034;-90
2022/03/30 09:31:52;;;;;;;32.55;12.98;;;9.50;99.90;;;;;;4992285;28;20037;-90
2022/03/30 09:34:18;;;;;;;22.95;12.63;;;9.60;99.90;;;;;;5021724;28;20276;-89
2022/03/30 09:36:44;;;;;;;19.13;11.77;;;9.30;99.90;;;;;;4991914;28;20449;-89
2022/03/30 09:39:34;;;;;;;26.35;11.95;;;9.30;99.90;;;;;;4988376;28;20064;-90
2022/03/30 09:42:03;;;;;;;24.17;11.77;;;9.30;99.90;;;;;;5021557;28;20449;-90
2022/03/30 09:44:29;;;;;;;23.88;11.50;;;9.60;99.90;;;;;;5002844;28;20049;-89
2022/03/30 09:46:55;;;;;;;24.02;11.93;;;9.60;99.90;;;;;;5001238;28;20129;-90
2022/03/30 09:49:45;;;;;;;24.13;12.52;;;9.70;99.90;;;;;;5023919;28;20120;-89
2022/03/30 09:52:14;;;;;;;22.90;10.73;;;9.60;99.90;;;;;;5004099;28;20720;-90
2022/03/30 09:54:42;;;;;;;30.92;11.65;;;9.60;99.90;;;;;;5010617;28;20026;-90
2022/03/30 09:57:14;;;;;;;25.90;10.90;;;10.10;99.90;;;;;;4988642;28;20033;-90
2022/03/30 10:00:15;;;;;;;22.33;11.10;;;10.00;99.90;;;;;;4987294;28;20127;-90
2022/03/30 10:02:49;;;;;;;23.35;11.77;;;10.20;99.90;;;;;;4987427;28;20073;-90
2022/03/30 10:05:18;;;;;;;21.95;10.23;;;10.60;99.90;;;;;;4967941;28;20025;-90
2022/03/30 10:07:45;;;;;;;20.85;11.45;;;10.60;99.90;;;;;;4987297;28;20029;-91
2022/03/30 10:10:13;;;;;;;24.83;10.48;;;10.60;99.90;;;;;;5007755;28;20141;-90
2022/03/30 10:12:39;;;;;;;23.27;11.93;;;10.40;99.90;;;;;;5010103;28;20037;-90
2022/03/30 10:15:06;;;;;;;25.23;11.40;;;10.40;99.90;;;;;;4988346;28;20160;-90
2022/03/30 10:17:32;;;;;;;17.20;9.80;;;10.30;99.90;;;;;;5018577;28;20477;-89
2022/03/30 10:20:01;;;;;;;23.88;9.82;;;10.70;99.90;;;;;;5006412;28;20059;-90
2022/03/30 10:22:45;;;;;;;26.95;10.93;;;10.90;99.90;;;;;;5023177;28;20559;-90
2022/03/30 10:25:48;;;;;;;17.90;9.95;;;11.10;99.90;;;;;;5023623;28;20033;-89
2022/03/30 10:28:30;;;;;;;33.78;10.70;;;11.00;99.90;;;;;;5023215;28;20041;-89
2022/03/30 10:30:57;;;;;;;32.38;11.75;;;10.80;99.90;;;;;;5008503;28;20044;-90
2022/03/30 10:33:36;;;;;;;36.33;11.20;;;10.80;99.90;;;;;;4996305;28;20493;-89
2022/03/30 10:36:28;;;;;;;18.02;9.27;;;10.80;99.90;;;;;;5004435;28;20049;-89
2022/03/30 10:39:07;;;;;;;17.98;9.88;;;10.90;99.90;;;;;;5002849;28;20088;-90
2022/03/30 10:42:11;;;;;;;21.60;10.00;;;11.00;99.90;;;;;;5002594;28;20504;-90
2022/03/30 10:44:41;;;;;;;27.02;12.32;;;10.90;99.90;;;;;;5008130;28;20032;-90
2022/03/30 10:47:17;;;;;;;17.42;8.77;;;10.80;99.90;;;;;;5007316;28;20068;-91
2022/03/30 10:49:54;;;;;;;14.95;10.23;;;11.00;99.90;;;;;;5001816;28;20034;-91
2022/03/30 10:52:27;;;;;;;20.63;10.18;;;12.20;99.90;;;;;;4997841;28;20103;-90
2022/03/30 10:55:19;;;;;;;16.20;9.77;;;11.80;99.90;;;;;;5006175;28;20034;-90
2022/03/30 10:57:58;;;;;;;16.50;9.20;;;11.30;99.90;;;;;;5006710;28;20714;-91
2022/03/30 11:00:36;;;;;;;49.20;10.55;;;11.30;99.90;;;;;;4993867;28;20481;-90
2022/03/30 11:03:12;;;;;;;20.85;10.48;;;11.50;99.90;;;;;;4984666;28;20048;-90
2022/03/30 11:05:38;;;;;;;19.13;9.23;;;11.40;99.90;;;;;;5009101;28;20025;-90
2022/03/30 11:08:07;;;;;;;24.42;10.93;;;12.30;99.90;;;;;;5007163;28;20029;-89
2022/03/30 11:10:55;;;;;;;23.42;9.75;;;12.30;99.90;;;;;;4992093;28;20113;-90
2022/03/30 11:13:24;;;;;;;28.08;10.10;;;12.80;99.80;;;;;;5015770;28;20112;-90
2022/03/30 11:15:59;;;;;;;21.08;10.65;;;12.40;99.90;;;;;;5005527;28;20048;-90
2022/03/30 11:18:27;;;;;;;18.98;9.85;;;12.20;99.40;;;;;;5015288;28;20041;-89
2022/03/30 11:21:15;;;;;;;15.90;8.93;;;12.20;99.90;;;;;;5003472;28;20113;-90
2022/03/30 11:24:07;;;;;;;19.05;9.55;;;12.20;99.60;;;;;;5020225;28;20034;-91
2022/03/30 11:26:50;;;;;;;14.57;7.72;;;12.40;99.90;;;;;;5010261;28;21774;-89
2022/03/30 11:29:41;;;;;;;15.00;9.63;;;12.60;99.80;;;;;;5028376;28;20053;-90
2022/03/30 11:32:37;;;;;;;17.30;9.98;;;12.60;99.90;;;;;;5014545;28;20489;-90
2022/03/30 11:35:08;;;;;;;16.00;11.05;;;13.40;99.40;;;;;;5011802;28;20103;-90
2022/03/30 11:37:35;;;;;;;18.75;10.60;;;13.00;98.40;;;;;;5015676;28;20048;-90
2022/03/30 11:40:12;;;;;;;17.15;11.68;;;13.20;99.90;;;;;;4996686;28;20026;-91
2022/03/30 11:42:45;;;;;;;16.63;9.65;;;13.00;97.90;;;;;;5024345;28;20029;-90
2022/03/30 11:45:15;;;;;;;21.58;12.27;;;13.10;99.40;;;;;;4990047;28;20381;-90
2022/03/30 11:47:45;;;;;;;19.00;10.50;;;13.10;95.50;;;;;;5010960;28;20079;-90
2022/03/30 11:50:15;;;;;;;16.55;9.50;;;12.80;97.90;;;;;;4986041;28;20494;-90
2022/03/30 11:52:42;;;;;;;16.40;10.13;;;13.70;98.80;;;;;;5013174;28;20025;-89
2022/03/30 11:55:08;;;;;;;17.65;8.40;;;13.90;98.40;;;;;;4990413;28;20064;-90
2022/03/30 11:57:40;;;;;;;17.02;8.52;;;13.70;99.90;;;;;;5031154;28;20636;-89
2022/03/30 12:00:09;;;;;;;46.25;13.85;;;15.10;98.10;;;;;;5004169;28;20038;-90
2022/03/30 12:02:38;;;;;;;16.38;10.10;;;13.80;96.50;;;;;;5025704;28;20034;-89
2022/03/30 12:05:04;;;;;;;23.73;10.40;;;14.00;98.10;;;;;;4992477;28;20057;-89
2022/03/30 12:07:33;;;;;;;38.17;11.52;;;14.20;98.30;;;;;;4997533;28;20052;-90
2022/03/30 12:09:59;;;;;;;15.30;7.75;;;13.90;97.00;;;;;;5010639;28;20037;-90
2022/03/30 12:12:35;;;;;;;19.00;9.73;;;14.50;99.70;;;;;;5009391;28;20033;-89
2022/03/30 12:15:12;;;;;;;20.08;10.68;;;14.40;97.70;;;;;;5011982;28;20034;-90
2022/03/30 12:17:39;;;;;;;16.30;10.32;;;14.90;97.90;;;;;;5001901;28;20056;-91
2022/03/30 12:20:09;;;;;;;27.25;12.27;;;14.70;96.90;;;;;;4989084;28;20108;-91
2022/03/30 12:22:35;;;;;;;25.20;10.02;;;14.10;94.70;;;;;;4994359;28;20026;-90
2022/03/30 12:25:01;;;;;;;16.45;11.75;;;14.20;95.90;;;;;;4996820;28;20083;-90
2022/03/30 12:27:27;;;;;;;30.17;11.88;;;13.90;94.10;;;;;;4996487;28;20500;-88
2022/03/30 12:29:56;;;;;;;17.30;9.95;;;13.80;94.20;;;;;;4991563;28;20037;-90
2022/03/30 12:32:24;;;;;;;21.15;10.48;;;14.30;96.20;;;;;;4992630;28;20539;-89
2022/03/30 12:35:09;;;;;;;16.30;9.13;;;14.50;95.50;;;;;;5004335;28;20041;-90
2022/03/30 12:37:34;;;;;;;21.95;12.10;;;15.10;96.30;;;;;;5021102;28;20029;-89
2022/03/30 12:40:14;;;;;;;20.77;11.45;;;14.90;95.60;;;;;;4989035;28;20029;-89
2022/03/30 12:42:40;;;;;;;16.27;9.63;;;14.50;93.90;;;;;;5001455;28;20030;-89
2022/03/30 12:45:10;;;;;;;42.15;12.07;;;14.50;94.50;;;;;;5005719;28;20026;-89
2022/03/30 12:47:37;;;;;;;22.02;10.02;;;14.30;90.50;;;;;;5029271;28;20397;-89